CDT,Max TemperatureF,Mean TemperatureF,Min TemperatureF,Max Dew PointF,MeanDew PointF,Min DewpointF,Max Humidity, Mean Humidity, Min Humidity, Max Sea Level PressureIn, Mean Sea Level PressureIn, Min Sea Level PressureIn, Max VisibilityMiles, Mean VisibilityMiles, Min VisibilityMiles, Max Wind SpeedMPH, Mean Wind SpeedMPH, Max Gust SpeedMPH,PrecipitationIn, CloudCover, Events, WindDirDegrees
2012-10-1,71,57,42,42,34,26,61,41,20,30.09,30.03,29.96,10,10,7,24,12,30,0.00,1,,327
2012-10-2,77,59,41,32,29,25,49,33,16,29.97,29.81,29.69,10,10,10,33,14,45,0.00,0,,181
2012-10-3,57,49,41,43,37,31,76,64,51,29.94,29.89,29.80,10,10,10,35,18,44,T,4,Rain,13
2012-10-4,45,39,33,38,33,27,100,85,70,30.23,30.04,29.86,10,6,0,39,25,47,0.35,8,Fog-Rain-Snow,319
2012-10-5,42,36,30,32,28,24,89,73,57,30.32,30.24,30.18,10,8,2,27,18,37,0.03,6,Rain-Snow,319
2012-10-6,48,37,26,31,26,21,92,67,42,30.41,30.32,30.17,10,10,8,17,8,21,0.00,3,Snow,310
2012-10-7,59,45,30,28,24,21,69,47,24,30.18,29.96,29.77,10,10,10,20,10,28,0.00,3,,215
2012-10-8,54,46,37,45,35,27,77,66,54,29.75,29.63,29.52,10,10,9,28,11,35,0.04,6,Rain,242
2012-10-9,43,35,27,34,29,23,82,66,49,30.05,29.87,29.71,10,10,10,30,14,40,T,7,Rain,299
2012-10-10,52,39,26,36,29,22,92,62,32,30.06,29.99,29.90,10,10,10,18,9,22,0.01,6,Rain,267
2012-10-11,47,36,24,36,28,20,92,65,37,30.44,30.22,29.94,10,10,6,18,9,24,0.00,1,,336
2012-10-12,54,41,27,23,20,17,81,53,24,30.43,30.19,29.83,10,10,10,30,16,37,0.00,1,,164
2012-10-13,65,52,39,39,34,19,70,51,31,29.86,29.73,29.65,10,10,10,16,11,21,0.00,0,,224
2012-10-14,56,44,32,37,33,30,89,68,47,29.98,29.93,29.87,10,10,10,17,9,20,0.00,1,,339
2012-10-15,67,51,35,39,35,30,89,62,34,29.94,29.78,29.55,10,10,10,26,12,33,0.00,3,,165
2012-10-16,73,59,45,46,44,38,80,59,38,29.55,29.44,29.27,10,10,10,13,6,15,T,2,Rain,204
2012-10-17,60,53,45,52,45,41,93,74,55,29.24,29.18,29.12,10,7,2,26,15,32,0.93,8,Rain,267
2012-10-18,50,46,42,47,43,39,93,88,83,29.60,29.35,29.13,10,6,2,43,27,52,0.46,8,Rain,335
2012-10-19,43,42,41,40,39,37,93,88,82,29.78,29.74,29.62,10,9,2,37,15,45,0.11,8,Rain,340
2012-10-20,52,46,39,44,40,37,92,82,71,29.76,29.71,29.65,10,10,10,29,12,39,T,7,Rain,173
2012-10-21,58,50,42,48,43,39,92,82,71,30.06,29.84,29.69,10,10,6,23,11,29,0.00,3,Rain,360
2012-10-22,52,47,41,43,39,34,82,72,61,30.09,30.01,29.89,10,10,10,18,11,22,T,5,Rain,29
2012-10-23,56,52,48,54,50,45,93,85,77,29.86,29.72,29.61,10,4,1,22,9,26,0.07,8,Rain,151
2012-10-24,48,42,36,45,36,30,86,80,73,30.04,29.94,29.79,10,10,10,20,12,25,T,7,Rain,313
2012-10-25,41,37,33,30,26,24,75,65,54,30.18,30.04,29.97,10,10,10,26,17,32,T,6,,309
2012-10-26,42,37,32,25,20,13,64,49,34,30.34,30.29,30.19,10,10,10,30,16,38,T,7,,280
2012-10-27,39,31,22,28,24,17,92,68,44,30.37,30.31,30.26,10,5,0,14,5,17,0.22,7,Fog-Snow,37
2012-10-28,37,30,23,32,26,20,92,84,75,30.34,30.28,30.21,10,9,1,14,8,16,T,6,Snow,50
2012-10-29,51,44,37,34,31,28,82,66,50,30.21,30.17,30.12,10,10,10,21,13,25,0.00,5,,140
2012-10-30,46,41,35,30,28,26,75,60,45,30.19,30.16,30.09,10,10,10,18,11,28,T,7,,140
2012-10-31,53,45,37,39,33,30,86,67,48,30.09,30.03,29.95,10,10,7,25,11,30,T,6,,195